createdAt,value
2023-05-17T00:03:01.221Z,5.38
2023-05-17T00:06:02.915Z,5.15
2023-05-17T00:09:04.650Z,4.95
2023-05-17T00:12:06.383Z,5.25
2023-05-17T00:15:09.396Z,5.23
2023-05-17T00:18:11.119Z,5.20
2023-05-17T00:21:12.815Z,5.65
2023-05-17T00:24:14.445Z,5.25
2023-05-17T00:27:16.188Z,5.47
2023-05-17T00:30:17.801Z,4.87
2023-05-17T00:33:19.472Z,5.80
2023-05-17T00:36:21.296Z,5.40
2023-05-17T00:39:22.932Z,5.30
2023-05-17T00:42:24.553Z,5.72
2023-05-17T00:45:26.394Z,5.60
2023-05-17T00:48:29.570Z,5.28
2023-05-17T00:51:32.135Z,5.30
2023-05-17T00:54:34.383Z,5.28
2023-05-17T00:57:36.716Z,5.70
2023-05-17T01:00:38.698Z,5.70
2023-05-17T01:03:40.529Z,5.68
2023-05-17T01:06:42.196Z,5.82
2023-05-17T01:09:44.323Z,5.43
2023-05-17T01:13:00.582Z,5.53
2023-05-17T01:16:33.172Z,5.77
2023-05-17T01:19:59.664Z,6.43
2023-05-17T01:23:32.596Z,6.05
2023-05-17T01:26:44.076Z,6.28
2023-05-17T01:29:46.337Z,5.45
2023-05-17T01:32:48.085Z,5.63
2023-05-17T01:35:49.884Z,5.70
2023-05-17T01:38:51.692Z,5.45
2023-05-17T01:42:08.386Z,5.38
2023-05-17T01:45:16.207Z,5.95
2023-05-17T01:48:22.577Z,5.30
2023-05-17T01:51:33.420Z,5.20
2023-05-17T01:54:50.819Z,5.40
2023-05-17T01:57:55.855Z,5.55
2023-05-17T02:01:00.530Z,5.30
2023-05-17T02:04:02.285Z,5.33
2023-05-17T02:07:04.128Z,5.30
2023-05-17T02:10:07.970Z,5.25
2023-05-17T02:13:09.665Z,5.45
2023-05-17T02:16:11.986Z,6.18
2023-05-17T02:19:14.298Z,5.83
2023-05-17T02:22:16.015Z,5.45
2023-05-17T02:25:17.806Z,5.10
2023-05-17T02:28:19.446Z,5.75
2023-05-17T02:31:21.183Z,5.40
2023-05-17T02:34:23.186Z,5.43
2023-05-17T02:37:25.370Z,5.43
2023-05-17T02:40:27.083Z,5.60
2023-05-17T02:43:28.677Z,5.80
2023-05-17T02:46:30.437Z,5.57
2023-05-17T02:49:32.087Z,5.43
2023-05-17T02:52:33.719Z,5.45
2023-05-17T02:55:35.595Z,5.43
2023-05-17T02:58:37.208Z,5.55
2023-05-17T03:01:38.848Z,5.95
2023-05-17T03:04:40.624Z,5.90
2023-05-17T03:07:42.306Z,6.90
2023-05-17T03:10:43.919Z,6.10
2023-05-17T03:13:46.514Z,5.93
2023-05-17T03:16:48.141Z,5.85
2023-05-17T03:19:49.781Z,5.97
2023-05-17T03:22:51.436Z,6.82
2023-05-17T03:25:53.101Z,6.63
2023-05-17T03:28:54.807Z,6.25
2023-05-17T03:31:56.469Z,6.47
2023-05-17T03:34:58.190Z,6.47
2023-05-17T03:37:59.808Z,6.40
2023-05-17T03:41:01.613Z,6.32
2023-05-17T03:44:03.308Z,6.15
2023-05-17T03:47:05.176Z,7.03
2023-05-17T03:50:07.768Z,7.10
2023-05-17T03:53:09.936Z,6.85
2023-05-17T03:56:11.762Z,6.85
2023-05-17T03:59:13.883Z,6.95
2023-05-17T04:02:16.760Z,6.85
2023-05-17T04:05:19.451Z,6.60
2023-05-17T04:08:21.233Z,6.00
2023-05-17T04:11:24.371Z,6.38
2023-05-17T04:14:26.189Z,5.85
2023-05-17T04:17:28.214Z,6.15
2023-05-17T04:20:29.935Z,6.17
2023-05-17T04:23:35.498Z,6.03
2023-05-17T04:26:38.027Z,6.20
2023-05-17T04:29:40.949Z,6.60
2023-05-17T04:32:43.699Z,6.70
2023-05-17T04:35:46.577Z,6.53
2023-05-17T04:38:48.309Z,6.47
2023-05-17T04:41:49.908Z,7.10
2023-05-17T04:44:51.584Z,6.65
2023-05-17T04:47:53.286Z,6.32
2023-05-17T04:50:54.964Z,6.40
2023-05-17T04:53:56.964Z,7.13
2023-05-17T04:56:58.616Z,6.80
2023-05-17T05:00:02.177Z,6.45
2023-05-17T05:03:05.106Z,6.82
2023-05-17T05:06:07.048Z,6.57
2023-05-17T05:09:08.742Z,6.75
2023-05-17T05:12:11.160Z,6.53
2023-05-17T05:15:12.800Z,7.05
2023-05-17T05:18:14.613Z,7.85
2023-05-17T05:21:16.378Z,7.57
2023-05-17T05:24:17.958Z,7.60
2023-05-17T05:27:19.582Z,7.50
2023-05-17T05:30:24.039Z,6.97
2023-05-17T05:33:26.489Z,7.00
2023-05-17T05:36:28.158Z,6.67
2023-05-17T05:39:29.780Z,7.13
2023-05-17T05:42:32.503Z,6.93
2023-05-17T05:45:34.238Z,6.63
2023-05-17T05:48:39.448Z,6.90
2023-05-17T05:51:41.233Z,6.70
2023-05-17T05:54:42.937Z,7.40
2023-05-17T05:57:44.550Z,7.20
2023-05-17T06:00:47.253Z,6.95
2023-05-17T06:03:49.092Z,6.88
2023-05-17T06:06:51.293Z,6.47
2023-05-17T06:09:53.206Z,6.38
2023-05-17T06:12:54.898Z,5.97
2023-05-17T06:15:56.602Z,6.30
2023-05-17T06:18:58.321Z,5.68
2023-05-17T06:22:00.057Z,5.90
2023-05-17T06:25:01.830Z,6.28
2023-05-17T06:28:04.351Z,5.63
2023-05-17T06:31:06.432Z,6.40
2023-05-17T06:34:08.208Z,5.97
2023-05-17T06:37:10.071Z,6.20
2023-05-17T06:40:16.704Z,6.00
2023-05-17T06:43:18.692Z,6.05
2023-05-17T06:46:20.515Z,5.60
2023-05-17T06:49:22.389Z,5.80
2023-05-17T06:52:24.158Z,5.43
2023-05-17T06:55:25.773Z,6.00
2023-05-17T06:58:27.394Z,6.05
2023-05-17T07:01:29.114Z,6.50
2023-05-17T07:04:31.799Z,6.28
2023-05-17T07:07:35.259Z,6.20
2023-05-17T07:10:36.966Z,6.30
2023-05-17T07:13:38.762Z,6.45
2023-05-17T07:16:40.673Z,6.30
2023-05-17T07:19:43.026Z,6.60
2023-05-17T07:22:46.052Z,7.10
2023-05-17T07:25:47.829Z,6.68
2023-05-17T07:28:51.926Z,7.38
2023-05-17T07:31:53.647Z,6.72
2023-05-17T07:34:55.378Z,6.90
2023-05-17T07:37:57.223Z,7.27
2023-05-17T07:40:58.951Z,7.13
2023-05-17T07:44:00.704Z,7.10
2023-05-17T07:47:02.372Z,6.97
2023-05-17T07:50:04.659Z,6.88
2023-05-17T07:53:06.475Z,6.93
2023-05-17T07:56:08.203Z,6.90
2023-05-17T07:59:09.812Z,7.30
2023-05-17T08:02:11.499Z,7.35
2023-05-17T08:05:13.233Z,6.80
2023-05-17T08:08:14.947Z,6.23
2023-05-17T08:11:16.891Z,6.88
2023-05-17T08:14:22.022Z,6.15
2023-05-17T08:17:23.738Z,5.93
2023-05-17T08:20:25.578Z,6.30
2023-05-17T08:23:27.286Z,6.40
2023-05-17T08:26:28.915Z,6.28
2023-05-17T08:29:30.666Z,6.40
2023-05-17T08:32:32.385Z,5.95
2023-05-17T08:35:34.278Z,5.78
2023-05-17T08:38:36.040Z,6.50
2023-05-17T08:41:37.758Z,6.32
2023-05-17T08:44:39.475Z,6.28
2023-05-17T08:47:43.176Z,6.43
2023-05-17T08:50:47.447Z,6.57
2023-05-17T08:53:50.723Z,5.97
2023-05-17T08:56:56.878Z,6.30
2023-05-17T09:00:01.028Z,6.57
2023-05-17T09:03:02.831Z,6.57
2023-05-17T09:06:04.953Z,5.95
2023-05-17T09:09:09.576Z,6.17
2023-05-17T09:12:11.700Z,6.72
2023-05-17T09:15:19.202Z,5.97
2023-05-17T09:18:30.537Z,5.65
2023-05-17T09:21:32.806Z,6.10
2023-05-17T09:24:35.144Z,5.27
2023-05-17T09:27:36.787Z,5.70
2023-05-17T09:30:41.936Z,5.75
2023-05-17T09:33:48.262Z,5.95
2023-05-17T09:36:49.972Z,5.88
2023-05-17T09:39:52.418Z,5.53
2023-05-17T09:42:55.096Z,5.47
2023-05-17T09:45:58.043Z,5.45
2023-05-17T09:49:02.274Z,5.38
2023-05-17T09:52:08.374Z,5.30
2023-05-17T09:55:11.854Z,4.70
2023-05-17T09:58:14.144Z,4.55
2023-05-17T10:01:16.614Z,4.47
2023-05-17T10:04:23.229Z,4.65
2023-05-17T10:07:26.884Z,3.97
2023-05-17T10:10:30.059Z,4.13
2023-05-17T10:13:37.424Z,4.03
2023-05-17T10:16:39.630Z,4.05
2023-05-17T10:19:42.194Z,3.83
2023-05-17T10:22:44.045Z,4.13
2023-05-17T10:25:46.487Z,4.20
2023-05-17T10:28:50.390Z,3.92
2023-05-17T10:31:52.147Z,4.00
2023-05-17T10:35:15.346Z,4.07
2023-05-17T10:38:18.323Z,4.20
2023-05-17T10:41:27.589Z,3.97
2023-05-17T10:44:33.216Z,3.42
2023-05-17T10:47:35.213Z,4.03
2023-05-17T10:50:47.343Z,3.67
2023-05-17T10:54:18.526Z,3.70
2023-05-17T11:00:43.262Z,3.55
2023-05-17T11:03:45.785Z,3.33
2023-05-17T11:06:47.575Z,3.28
2023-05-17T11:09:50.299Z,3.33
2023-05-17T11:12:55.425Z,3.43
2023-05-17T11:16:08.037Z,3.15
2023-05-17T11:19:11.811Z,3.22
2023-05-17T11:22:16.171Z,3.38
2023-05-17T11:25:19.316Z,3.38
2023-05-17T11:28:22.389Z,3.30
2023-05-17T11:31:32.161Z,3.42
2023-05-17T11:34:34.212Z,3.15
2023-05-17T11:37:36.168Z,3.50
2023-05-17T11:40:38.842Z,3.25
2023-05-17T11:43:46.057Z,3.47
2023-05-17T11:46:47.766Z,3.50
2023-05-17T11:49:54.947Z,3.30
2023-05-17T11:53:00.197Z,3.50
2023-05-17T11:56:04.614Z,3.38
2023-05-17T11:59:06.394Z,3.67
2023-05-17T12:02:08.366Z,3.55
2023-05-17T12:05:10.213Z,3.40
2023-05-17T12:08:11.939Z,3.60
2023-05-17T12:11:18.618Z,3.50
2023-05-17T12:14:20.616Z,3.23
2023-05-17T12:17:35.440Z,2.88
2023-05-17T12:20:39.051Z,3.00
2023-05-17T12:23:43.904Z,3.03
2023-05-17T12:26:46.997Z,2.92
2023-05-17T12:29:48.593Z,3.13
2023-05-17T12:32:50.447Z,3.03
2023-05-17T12:35:52.640Z,2.67
2023-05-17T12:38:56.078Z,2.65
2023-05-17T12:41:57.773Z,2.78
2023-05-17T12:45:00.237Z,2.70
2023-05-17T12:48:02.061Z,2.97
2023-05-17T12:51:45.195Z,2.80
2023-05-17T12:54:47.368Z,2.63
2023-05-17T12:57:53.608Z,2.78
2023-05-17T13:01:03.365Z,2.57
2023-05-17T13:04:05.634Z,2.65
2023-05-17T13:07:07.482Z,2.60
2023-05-17T13:10:29.623Z,3.00
2023-05-17T13:13:33.720Z,2.85
2023-05-17T13:16:39.463Z,2.80
2023-05-17T13:19:41.748Z,2.40
2023-05-17T13:22:47.238Z,2.97
2023-05-17T13:25:49.040Z,2.80
2023-05-17T13:28:51.332Z,2.80
2023-05-17T13:31:53.051Z,2.60
2023-05-17T13:34:55.014Z,2.90
2023-05-17T13:37:57.893Z,3.08
2023-05-17T13:40:59.627Z,2.95
2023-05-17T13:44:01.345Z,3.20
2023-05-17T13:47:03.070Z,3.03
2023-05-17T13:50:04.967Z,3.55
2023-05-17T13:53:06.565Z,2.97
2023-05-17T13:56:08.398Z,3.60
2023-05-17T13:59:10.087Z,3.42
2023-05-17T14:02:11.825Z,3.17
2023-05-17T14:05:14.948Z,3.13
2023-05-17T14:08:17.548Z,3.40
2023-05-17T14:11:19.265Z,3.22
2023-05-17T14:14:20.900Z,3.25
2023-05-17T14:17:22.560Z,2.80
2023-05-17T14:20:24.270Z,2.50
2023-05-17T14:23:26.197Z,2.65
2023-05-17T14:26:27.832Z,2.65
2023-05-17T14:29:30.437Z,2.50
2023-05-17T14:32:32.140Z,2.20
2023-05-17T14:35:34.067Z,2.50
2023-05-17T14:38:37.063Z,2.40
2023-05-17T14:41:39.386Z,2.38
2023-05-17T14:44:41.257Z,2.30
2023-05-17T14:47:42.932Z,2.13
2023-05-17T14:50:44.625Z,2.10
2023-05-17T14:53:46.613Z,2.00
2023-05-17T14:56:49.044Z,1.70
2023-05-17T14:59:51.018Z,1.90
2023-05-17T15:02:52.679Z,1.87
2023-05-17T15:05:55.604Z,2.20
2023-05-17T15:08:57.760Z,1.92
2023-05-17T15:11:59.391Z,1.70
2023-05-17T15:15:01.103Z,1.60
2023-05-17T15:18:02.722Z,1.70
2023-05-17T15:21:04.694Z,1.58
2023-05-17T15:24:06.616Z,1.50
2023-05-17T15:27:08.315Z,1.80
2023-05-17T15:30:12.599Z,1.50
2023-05-17T15:33:15.561Z,1.40
2023-05-17T15:36:17.494Z,1.80
2023-05-17T15:39:19.175Z,1.55
2023-05-17T15:42:20.821Z,1.75
2023-05-17T15:45:22.443Z,1.60
2023-05-17T15:48:26.093Z,1.47
2023-05-17T15:51:27.969Z,1.48
2023-05-17T15:54:29.668Z,1.48
2023-05-17T15:57:31.354Z,1.27
2023-05-17T16:00:32.969Z,1.40
2023-05-17T16:03:34.831Z,1.20
2023-05-17T16:06:36.825Z,1.20
2023-05-17T16:09:38.640Z,1.30
2023-05-17T16:12:40.328Z,1.30
2023-05-17T16:15:41.920Z,1.30
2023-05-17T16:18:43.596Z,1.20
2023-05-17T16:21:47.288Z,1.10
2023-05-17T16:24:57.165Z,1.10
2023-05-17T16:27:59.056Z,1.25
2023-05-17T16:31:01.340Z,1.13
2023-05-17T16:34:03.088Z,1.33
2023-05-17T16:37:04.974Z,1.20
2023-05-17T16:40:07.460Z,1.30
2023-05-17T16:43:09.344Z,1.27
2023-05-17T16:46:10.961Z,1.42
2023-05-17T16:49:12.578Z,1.43
2023-05-17T16:52:14.169Z,1.60
2023-05-17T16:55:15.772Z,1.75
2023-05-17T16:58:17.581Z,1.70
2023-05-17T17:01:19.331Z,1.60
2023-05-17T17:04:21.486Z,1.50
2023-05-17T17:07:23.156Z,1.58
2023-05-17T17:10:24.763Z,1.60
2023-05-17T17:13:26.675Z,1.60
2023-05-17T17:16:29.224Z,1.80
2023-05-17T17:19:31.292Z,1.73
2023-05-17T17:22:32.887Z,1.73
2023-05-17T17:25:34.526Z,2.08
2023-05-17T17:28:36.118Z,1.70
2023-05-17T17:31:37.796Z,1.70
2023-05-17T17:34:39.392Z,2.03
2023-05-17T17:37:41.107Z,2.22
2023-05-17T17:40:42.734Z,1.90
2023-05-17T17:43:46.976Z,2.00
2023-05-17T17:46:49.009Z,2.03
2023-05-17T17:49:50.680Z,1.87
2023-05-17T17:52:52.284Z,1.90
2023-05-17T17:55:53.892Z,1.77
2023-05-17T17:58:56.161Z,2.15
2023-05-17T18:01:59.555Z,2.13
2023-05-17T18:05:01.417Z,2.27
2023-05-17T18:08:03.201Z,2.00
2023-05-17T18:11:05.072Z,2.17
2023-05-17T18:14:07.755Z,2.45
2023-05-17T18:17:10.474Z,2.20
2023-05-17T18:20:12.206Z,2.70
2023-05-17T18:23:13.902Z,2.53
2023-05-17T18:26:15.531Z,2.80
2023-05-17T18:29:17.140Z,2.45
2023-05-17T18:32:18.823Z,2.80
2023-05-17T18:35:20.638Z,2.40
2023-05-17T18:38:22.346Z,2.20
2023-05-17T18:41:24.388Z,2.25
2023-05-17T18:44:25.990Z,2.65
2023-05-17T18:47:27.979Z,2.35
2023-05-17T18:50:30.380Z,2.10
2023-05-17T18:53:32.303Z,2.78
2023-05-17T18:56:34.301Z,2.53
2023-05-17T18:59:36.120Z,2.20
2023-05-17T19:02:37.899Z,2.53
2023-05-17T19:05:39.629Z,2.70
2023-05-17T19:08:41.333Z,2.45
2023-05-17T19:11:42.944Z,2.50
2023-05-17T19:14:44.557Z,2.42
2023-05-17T19:17:46.380Z,2.55
2023-05-17T19:20:48.059Z,3.07
2023-05-17T19:23:49.654Z,3.05
2023-05-17T19:26:51.263Z,3.05
2023-05-17T19:29:52.904Z,2.50
2023-05-17T19:32:54.603Z,2.65
2023-05-17T19:35:56.405Z,2.93
2023-05-17T19:38:58.000Z,2.45
2023-05-17T19:41:59.615Z,2.47
2023-05-17T19:45:01.858Z,2.55
2023-05-17T19:48:07.274Z,2.80
2023-05-17T19:51:09.068Z,2.40
2023-05-17T19:54:10.921Z,2.50
2023-05-17T19:57:12.535Z,2.80
2023-05-17T20:00:14.517Z,2.97
2023-05-17T20:03:16.166Z,2.42
2023-05-17T20:06:17.825Z,2.60
2023-05-17T20:09:19.519Z,2.88
2023-05-17T20:12:21.250Z,2.63
2023-05-17T20:15:23.013Z,2.80
2023-05-17T20:18:27.536Z,3.03
2023-05-17T20:21:29.524Z,2.43
2023-05-17T20:24:31.276Z,2.90
2023-05-17T20:27:32.900Z,2.50
2023-05-17T20:30:34.569Z,2.53
2023-05-17T20:33:36.381Z,2.40
2023-05-17T20:36:38.013Z,2.30
2023-05-17T20:39:39.628Z,2.38
2023-05-17T20:42:42.746Z,2.10
2023-05-17T20:45:45.913Z,2.40
2023-05-17T20:48:48.485Z,2.08
2023-05-17T20:51:50.150Z,2.20
2023-05-17T20:54:52.356Z,2.33
2023-05-17T20:57:54.038Z,2.30
2023-05-17T21:00:56.979Z,2.10
2023-05-17T21:03:59.120Z,2.50
2023-05-17T21:07:00.885Z,2.40
2023-05-17T21:10:02.473Z,2.38
2023-05-17T21:13:04.117Z,2.85
2023-05-17T21:16:06.095Z,2.72
2023-05-17T21:19:08.835Z,2.30
2023-05-17T21:22:10.596Z,2.37
2023-05-17T21:25:12.190Z,2.40
2023-05-17T21:28:14.091Z,2.50
2023-05-17T21:31:16.017Z,2.17
2023-05-17T21:34:17.672Z,2.17
2023-05-17T21:37:19.370Z,2.00
2023-05-17T21:40:20.995Z,1.75
2023-05-17T21:43:22.641Z,2.13
2023-05-17T21:46:24.354Z,2.05
2023-05-17T21:49:26.113Z,2.15
2023-05-17T21:52:27.899Z,1.87
2023-05-17T21:55:40.992Z,2.30
2023-05-17T21:58:47.793Z,2.20
2023-05-17T22:01:49.475Z,1.90
2023-05-17T22:04:51.243Z,1.92
2023-05-17T22:07:52.927Z,2.00
2023-05-17T22:10:55.620Z,2.00
2023-05-17T22:13:58.121Z,1.98
2023-05-17T22:17:00.230Z,2.20
2023-05-17T22:20:05.622Z,2.38
2023-05-17T22:23:07.233Z,2.30
2023-05-17T22:26:09.597Z,3.17
2023-05-17T22:29:11.638Z,2.75
2023-05-17T22:32:13.383Z,3.00
2023-05-17T22:35:15.171Z,3.13
2023-05-17T22:38:16.775Z,4.03
2023-05-17T22:41:18.424Z,3.80
2023-05-17T22:44:21.906Z,2.85
2023-05-17T22:47:26.792Z,2.53
2023-05-17T22:50:34.554Z,2.58
2023-05-17T22:53:36.378Z,2.40
2023-05-17T22:56:38.436Z,2.60
2023-05-17T22:59:43.660Z,2.50
2023-05-17T23:02:45.378Z,2.83
2023-05-17T23:05:47.373Z,2.33
2023-05-17T23:08:49.704Z,2.23
2023-05-17T23:11:51.435Z,2.10
2023-05-17T23:14:53.073Z,2.00
2023-05-17T23:17:55.032Z,1.80
2023-05-17T23:20:56.610Z,1.88
2023-05-17T23:23:58.196Z,1.90
2023-05-17T23:26:59.848Z,1.77
2023-05-17T23:30:02.160Z,1.80
2023-05-17T23:33:05.025Z,2.00
2023-05-17T23:36:07.251Z,2.20
2023-05-17T23:39:09.464Z,2.20
2023-05-17T23:42:11.089Z,2.10
2023-05-17T23:45:12.878Z,1.98
2023-05-17T23:48:16.206Z,2.00
2023-05-17T23:51:21.150Z,2.08
2023-05-17T23:54:24.331Z,2.30
2023-05-17T23:57:26.127Z,2.28
